sensor_id;sensor_type;location;lat;lon;timestamp;P1;durP1;ratioP1;P2;durP2;ratioP2
3781;SDS011;6881;49.962;7.718;2023-05-13T00:02:15;5.93;;;5.37;;
3781;SDS011;6881;49.962;7.718;2023-05-13T00:04:40;6.00;;;5.40;;
3781;SDS011;6881;49.962;7.718;2023-05-13T00:07:06;9.20;;;5.30;;
3781;SDS011;6881;49.962;7.718;2023-05-13T00:09:31;7.53;;;5.03;;
3781;SDS011;6881;49.962;7.718;2023-05-13T00:11:56;5.73;;;5.17;;
3781;SDS011;6881;49.962;7.718;2023-05-13T00:14:22;6.37;;;5.80;;
3781;SDS011;6881;49.962;7.718;2023-05-13T00:16:47;6.40;;;5.27;;
3781;SDS011;6881;49.962;7.718;2023-05-13T00:19:12;6.83;;;6.13;;
3781;SDS011;6881;49.962;7.718;2023-05-13T00:21:38;6.93;;;5.50;;
3781;SDS011;6881;49.962;7.718;2023-05-13T00:24:03;5.30;;;4.43;;
3781;SDS011;6881;49.962;7.718;2023-05-13T00:26:29;7.43;;;5.40;;
3781;SDS011;6881;49.962;7.718;2023-05-13T00:28:54;6.40;;;5.80;;
3781;SDS011;6881;49.962;7.718;2023-05-13T00:31:20;8.70;;;5.43;;
3781;SDS011;6881;49.962;7.718;2023-05-13T00:33:45;14.30;;;5.53;;
3781;SDS011;6881;49.962;7.718;2023-05-13T00:36:10;6.07;;;4.73;;
3781;SDS011;6881;49.962;7.718;2023-05-13T00:38:36;6.17;;;5.17;;
3781;SDS011;6881;49.962;7.718;2023-05-13T00:41:02;5.83;;;5.20;;
3781;SDS011;6881;49.962;7.718;2023-05-13T00:43:28;6.97;;;6.27;;
3781;SDS011;6881;49.962;7.718;2023-05-13T00:45:53;7.20;;;5.67;;
3781;SDS011;6881;49.962;7.718;2023-05-13T00:48:18;5.67;;;5.17;;
3781;SDS011;6881;49.962;7.718;2023-05-13T00:50:44;6.27;;;5.20;;
3781;SDS011;6881;49.962;7.718;2023-05-13T00:53:09;7.57;;;5.40;;
3781;SDS011;6881;49.962;7.718;2023-05-13T00:55:39;6.40;;;5.80;;
3781;SDS011;6881;49.962;7.718;2023-05-13T00:58:06;5.83;;;5.30;;
3781;SDS011;6881;49.962;7.718;2023-05-13T01:00:31;6.00;;;5.40;;
3781;SDS011;6881;49.962;7.718;2023-05-13T01:03:22;6.33;;;5.23;;
3781;SDS011;6881;49.962;7.718;2023-05-13T01:05:58;7.07;;;5.80;;
3781;SDS011;6881;49.962;7.718;2023-05-13T01:08:36;9.33;;;6.30;;
3781;SDS011;6881;49.962;7.718;2023-05-13T01:11:33;8.90;;;6.53;;
3781;SDS011;6881;49.962;7.718;2023-05-13T01:14:02;10.63;;;6.27;;
3781;SDS011;6881;49.962;7.718;2023-05-13T01:16:39;7.87;;;7.07;;
3781;SDS011;6881;49.962;7.718;2023-05-13T01:19:13;9.40;;;7.43;;
3781;SDS011;6881;49.962;7.718;2023-05-13T01:22:00;13.40;;;8.13;;
3781;SDS011;6881;49.962;7.718;2023-05-13T01:24:26;8.90;;;7.00;;
3781;SDS011;6881;49.962;7.718;2023-05-13T01:26:51;8.10;;;6.40;;
3781;SDS011;6881;49.962;7.718;2023-05-13T01:29:16;10.77;;;7.40;;
3781;SDS011;6881;49.962;7.718;2023-05-13T01:31:42;5.87;;;5.37;;
3781;SDS011;6881;49.962;7.718;2023-05-13T01:34:08;9.00;;;6.57;;
3781;SDS011;6881;49.962;7.718;2023-05-13T01:36:36;7.27;;;6.00;;
3781;SDS011;6881;49.962;7.718;2023-05-13T01:39:02;11.20;;;6.13;;
3781;SDS011;6881;49.962;7.718;2023-05-13T01:41:28;6.70;;;6.10;;
3781;SDS011;6881;49.962;7.718;2023-05-13T01:43:53;6.50;;;5.30;;
3781;SDS011;6881;49.962;7.718;2023-05-13T01:46:19;9.37;;;6.50;;
3781;SDS011;6881;49.962;7.718;2023-05-13T01:48:44;9.37;;;6.63;;
3781;SDS011;6881;49.962;7.718;2023-05-13T01:51:10;6.30;;;5.70;;
3781;SDS011;6881;49.962;7.718;2023-05-13T01:53:35;8.47;;;6.10;;
3781;SDS011;6881;49.962;7.718;2023-05-13T01:56:00;8.40;;;6.40;;
3781;SDS011;6881;49.962;7.718;2023-05-13T01:58:26;7.50;;;6.27;;
3781;SDS011;6881;49.962;7.718;2023-05-13T02:00:51;7.50;;;6.80;;
3781;SDS011;6881;49.962;7.718;2023-05-13T02:03:17;9.33;;;5.80;;
3781;SDS011;6881;49.962;7.718;2023-05-13T02:05:42;7.97;;;6.10;;
3781;SDS011;6881;49.962;7.718;2023-05-13T02:08:08;7.20;;;6.50;;
3781;SDS011;6881;49.962;7.718;2023-05-13T02:10:33;6.57;;;5.83;;
3781;SDS011;6881;49.962;7.718;2023-05-13T02:12:58;6.60;;;5.87;;
3781;SDS011;6881;49.962;7.718;2023-05-13T02:15:24;9.13;;;6.13;;
3781;SDS011;6881;49.962;7.718;2023-05-13T02:17:49;6.17;;;5.60;;
3781;SDS011;6881;49.962;7.718;2023-05-13T02:20:15;6.97;;;5.63;;
3781;SDS011;6881;49.962;7.718;2023-05-13T02:22:41;8.70;;;6.27;;
3781;SDS011;6881;49.962;7.718;2023-05-13T02:25:06;8.17;;;5.93;;
3781;SDS011;6881;49.962;7.718;2023-05-13T02:27:32;7.37;;;6.70;;
3781;SDS011;6881;49.962;7.718;2023-05-13T02:29:57;7.17;;;6.13;;
3781;SDS011;6881;49.962;7.718;2023-05-13T02:32:23;7.17;;;6.47;;
3781;SDS011;6881;49.962;7.718;2023-05-13T02:34:48;7.83;;;6.80;;
3781;SDS011;6881;49.962;7.718;2023-05-13T02:37:13;9.33;;;6.57;;
3781;SDS011;6881;49.962;7.718;2023-05-13T02:39:39;8.27;;;6.70;;
3781;SDS011;6881;49.962;7.718;2023-05-13T02:42:04;8.13;;;6.90;;
3781;SDS011;6881;49.962;7.718;2023-05-13T02:44:29;8.73;;;7.10;;
3781;SDS011;6881;49.962;7.718;2023-05-13T02:46:55;9.00;;;7.07;;
3781;SDS011;6881;49.962;7.718;2023-05-13T02:49:20;6.50;;;5.90;;
3781;SDS011;6881;49.962;7.718;2023-05-13T02:51:45;7.40;;;6.67;;
3781;SDS011;6881;49.962;7.718;2023-05-13T02:54:11;10.00;;;8.00;;
3781;SDS011;6881;49.962;7.718;2023-05-13T02:56:36;8.40;;;7.60;;
3781;SDS011;6881;49.962;7.718;2023-05-13T02:59:01;8.57;;;7.67;;
3781;SDS011;6881;49.962;7.718;2023-05-13T03:01:27;8.40;;;7.50;;
3781;SDS011;6881;49.962;7.718;2023-05-13T03:03:52;8.47;;;7.60;;
3781;SDS011;6881;49.962;7.718;2023-05-13T03:06:17;9.47;;;7.73;;
3781;SDS011;6881;49.962;7.718;2023-05-13T03:08:43;9.23;;;8.33;;
3781;SDS011;6881;49.962;7.718;2023-05-13T03:11:08;8.17;;;7.40;;
3781;SDS011;6881;49.962;7.718;2023-05-13T03:13:33;8.83;;;6.77;;
3781;SDS011;6881;49.962;7.718;2023-05-13T03:15:59;8.57;;;7.10;;
3781;SDS011;6881;49.962;7.718;2023-05-13T03:18:24;6.73;;;6.13;;
3781;SDS011;6881;49.962;7.718;2023-05-13T03:20:49;7.83;;;7.13;;
3781;SDS011;6881;49.962;7.718;2023-05-13T03:23:15;9.30;;;7.20;;
3781;SDS011;6881;49.962;7.718;2023-05-13T03:25:40;7.50;;;6.70;;
3781;SDS011;6881;49.962;7.718;2023-05-13T03:28:07;7.80;;;7.00;;
3781;SDS011;6881;49.962;7.718;2023-05-13T03:30:32;8.90;;;7.30;;
3781;SDS011;6881;49.962;7.718;2023-05-13T03:32:58;11.23;;;7.47;;
3781;SDS011;6881;49.962;7.718;2023-05-13T03:35:23;11.47;;;7.87;;
3781;SDS011;6881;49.962;7.718;2023-05-13T03:37:48;8.27;;;7.47;;
3781;SDS011;6881;49.962;7.718;2023-05-13T03:40:14;7.00;;;6.33;;
3781;SDS011;6881;49.962;7.718;2023-05-13T03:42:39;7.70;;;6.90;;
3781;SDS011;6881;49.962;7.718;2023-05-13T03:45:05;13.80;;;7.70;;
3781;SDS011;6881;49.962;7.718;2023-05-13T03:47:31;9.63;;;7.40;;
3781;SDS011;6881;49.962;7.718;2023-05-13T03:49:56;9.87;;;7.63;;
3781;SDS011;6881;49.962;7.718;2023-05-13T03:52:21;7.10;;;6.37;;
3781;SDS011;6881;49.962;7.718;2023-05-13T03:54:47;7.40;;;6.80;;
3781;SDS011;6881;49.962;7.718;2023-05-13T03:57:12;8.37;;;6.50;;
3781;SDS011;6881;49.962;7.718;2023-05-13T03:59:37;8.30;;;7.50;;
3781;SDS011;6881;49.962;7.718;2023-05-13T04:02:03;8.60;;;7.40;;
3781;SDS011;6881;49.962;7.718;2023-05-13T04:04:28;8.03;;;7.13;;
3781;SDS011;6881;49.962;7.718;2023-05-13T04:06:53;8.27;;;7.40;;
3781;SDS011;6881;49.962;7.718;2023-05-13T04:09:19;8.77;;;7.70;;
3781;SDS011;6881;49.962;7.718;2023-05-13T04:11:44;8.13;;;7.30;;
3781;SDS011;6881;49.962;7.718;2023-05-13T04:14:10;8.10;;;7.30;;
3781;SDS011;6881;49.962;7.718;2023-05-13T04:16:35;7.70;;;7.00;;
3781;SDS011;6881;49.962;7.718;2023-05-13T04:19:00;8.77;;;7.73;;
3781;SDS011;6881;49.962;7.718;2023-05-13T04:21:26;8.30;;;7.50;;
3781;SDS011;6881;49.962;7.718;2023-05-13T04:23:51;7.30;;;6.60;;
3781;SDS011;6881;49.962;7.718;2023-05-13T04:26:17;8.23;;;7.33;;
3781;SDS011;6881;49.962;7.718;2023-05-13T04:28:42;7.80;;;6.53;;
3781;SDS011;6881;49.962;7.718;2023-05-13T04:31:07;7.80;;;7.13;;
3781;SDS011;6881;49.962;7.718;2023-05-13T04:33:33;11.70;;;7.20;;
3781;SDS011;6881;49.962;7.718;2023-05-13T04:35:58;7.83;;;6.97;;
3781;SDS011;6881;49.962;7.718;2023-05-13T04:38:23;7.53;;;6.87;;
3781;SDS011;6881;49.962;7.718;2023-05-13T04:40:49;7.83;;;7.13;;
3781;SDS011;6881;49.962;7.718;2023-05-13T04:43:14;8.37;;;7.17;;
3781;SDS011;6881;49.962;7.718;2023-05-13T04:45:40;7.70;;;6.30;;
3781;SDS011;6881;49.962;7.718;2023-05-13T04:48:05;7.47;;;5.93;;
3781;SDS011;6881;49.962;7.718;2023-05-13T04:50:31;8.80;;;6.37;;
3781;SDS011;6881;49.962;7.718;2023-05-13T04:52:56;6.43;;;5.87;;
3781;SDS011;6881;49.962;7.718;2023-05-13T04:55:22;7.70;;;5.97;;
3781;SDS011;6881;49.962;7.718;2023-05-13T04:57:47;7.57;;;6.13;;
3781;SDS011;6881;49.962;7.718;2023-05-13T05:00:13;5.63;;;5.20;;
3781;SDS011;6881;49.962;7.718;2023-05-13T05:02:39;9.33;;;6.47;;
3781;SDS011;6881;49.962;7.718;2023-05-13T05:05:04;8.07;;;6.80;;
3781;SDS011;6881;49.962;7.718;2023-05-13T05:07:30;5.80;;;5.30;;
3781;SDS011;6881;49.962;7.718;2023-05-13T05:09:55;7.40;;;6.70;;
3781;SDS011;6881;49.962;7.718;2023-05-13T05:12:20;7.23;;;6.50;;
3781;SDS011;6881;49.962;7.718;2023-05-13T05:14:46;7.00;;;6.40;;
3781;SDS011;6881;49.962;7.718;2023-05-13T05:17:11;6.57;;;6.07;;
3781;SDS011;6881;49.962;7.718;2023-05-13T05:19:36;6.40;;;5.80;;
3781;SDS011;6881;49.962;7.718;2023-05-13T05:22:02;6.00;;;5.50;;
3781;SDS011;6881;49.962;7.718;2023-05-13T05:24:27;7.27;;;6.03;;
3781;SDS011;6881;49.962;7.718;2023-05-13T05:26:52;6.90;;;6.30;;
3781;SDS011;6881;49.962;7.718;2023-05-13T05:29:18;6.03;;;5.40;;
3781;SDS011;6881;49.962;7.718;2023-05-13T05:31:43;6.23;;;5.63;;
3781;SDS011;6881;49.962;7.718;2023-05-13T05:34:09;6.13;;;5.30;;
3781;SDS011;6881;49.962;7.718;2023-05-13T05:36:34;5.93;;;5.33;;
3781;SDS011;6881;49.962;7.718;2023-05-13T05:39:00;6.70;;;5.43;;
3781;SDS011;6881;49.962;7.718;2023-05-13T05:41:25;5.27;;;4.83;;
3781;SDS011;6881;49.962;7.718;2023-05-13T05:43:50;4.97;;;4.57;;
3781;SDS011;6881;49.962;7.718;2023-05-13T05:46:16;4.60;;;4.20;;
3781;SDS011;6881;49.962;7.718;2023-05-13T05:48:41;4.73;;;4.33;;
3781;SDS011;6881;49.962;7.718;2023-05-13T05:51:06;5.70;;;5.10;;
3781;SDS011;6881;49.962;7.718;2023-05-13T05:53:34;5.13;;;4.63;;
3781;SDS011;6881;49.962;7.718;2023-05-13T05:56:01;4.50;;;3.97;;
3781;SDS011;6881;49.962;7.718;2023-05-13T05:58:27;4.87;;;4.47;;
3781;SDS011;6881;49.962;7.718;2023-05-13T06:00:52;4.67;;;4.27;;
3781;SDS011;6881;49.962;7.718;2023-05-13T06:03:22;5.20;;;4.80;;
3781;SDS011;6881;49.962;7.718;2023-05-13T06:05:47;4.50;;;4.10;;
3781;SDS011;6881;49.962;7.718;2023-05-13T06:08:13;4.87;;;4.27;;
3781;SDS011;6881;49.962;7.718;2023-05-13T06:10:38;4.97;;;4.53;;
3781;SDS011;6881;49.962;7.718;2023-05-13T06:13:03;4.10;;;3.80;;
3781;SDS011;6881;49.962;7.718;2023-05-13T06:15:29;4.97;;;4.57;;
3781;SDS011;6881;49.962;7.718;2023-05-13T06:17:54;3.87;;;3.57;;
3781;SDS011;6881;49.962;7.718;2023-05-13T06:20:20;3.90;;;3.57;;
3781;SDS011;6881;49.962;7.718;2023-05-13T06:22:46;4.53;;;4.13;;
3781;SDS011;6881;49.962;7.718;2023-05-13T06:25:12;6.60;;;4.10;;
3781;SDS011;6881;49.962;7.718;2023-05-13T06:27:37;3.90;;;3.60;;
3781;SDS011;6881;49.962;7.718;2023-05-13T06:30:03;4.90;;;3.60;;
3781;SDS011;6881;49.962;7.718;2023-05-13T06:32:28;4.00;;;3.70;;
3781;SDS011;6881;49.962;7.718;2023-05-13T06:34:54;4.83;;;3.60;;
3781;SDS011;6881;49.962;7.718;2023-05-13T06:37:19;3.97;;;3.63;;
3781;SDS011;6881;49.962;7.718;2023-05-13T06:39:45;4.03;;;3.63;;
3781;SDS011;6881;49.962;7.718;2023-05-13T06:42:10;3.87;;;3.57;;
3781;SDS011;6881;49.962;7.718;2023-05-13T06:44:35;4.90;;;4.50;;
3781;SDS011;6881;49.962;7.718;2023-05-13T06:47:01;3.43;;;3.13;;
3781;SDS011;6881;49.962;7.718;2023-05-13T06:49:29;4.23;;;3.53;;
3781;SDS011;6881;49.962;7.718;2023-05-13T06:51:56;3.50;;;3.30;;
3781;SDS011;6881;49.962;7.718;2023-05-13T06:54:21;3.33;;;2.90;;
3781;SDS011;6881;49.962;7.718;2023-05-13T06:56:47;3.17;;;2.97;;
3781;SDS011;6881;49.962;7.718;2023-05-13T06:59:12;3.27;;;3.07;;
3781;SDS011;6881;49.962;7.718;2023-05-13T07:01:37;2.90;;;2.70;;
3781;SDS011;6881;49.962;7.718;2023-05-13T07:04:03;5.07;;;3.13;;
3781;SDS011;6881;49.962;7.718;2023-05-13T07:06:29;5.27;;;3.60;;
3781;SDS011;6881;49.962;7.718;2023-05-13T07:08:55;3.00;;;2.80;;
3781;SDS011;6881;49.962;7.718;2023-05-13T07:11:20;2.93;;;2.73;;
3781;SDS011;6881;49.962;7.718;2023-05-13T07:13:46;3.23;;;3.03;;
3781;SDS011;6881;49.962;7.718;2023-05-13T07:16:12;3.57;;;2.67;;
3781;SDS011;6881;49.962;7.718;2023-05-13T07:18:38;2.93;;;2.60;;
3781;SDS011;6881;49.962;7.718;2023-05-13T07:21:03;3.47;;;3.17;;
3781;SDS011;6881;49.962;7.718;2023-05-13T07:23:28;3.43;;;3.20;;
3781;SDS011;6881;49.962;7.718;2023-05-13T07:25:55;3.30;;;3.10;;
3781;SDS011;6881;49.962;7.718;2023-05-13T07:28:21;3.07;;;2.83;;
3781;SDS011;6881;49.962;7.718;2023-05-13T07:30:46;3.27;;;3.03;;
3781;SDS011;6881;49.962;7.718;2023-05-13T07:33:11;2.70;;;2.50;;
3781;SDS011;6881;49.962;7.718;2023-05-13T07:35:37;3.13;;;2.93;;
3781;SDS011;6881;49.962;7.718;2023-05-13T07:38:03;2.67;;;2.47;;
3781;SDS011;6881;49.962;7.718;2023-05-13T07:40:28;2.77;;;2.57;;
3781;SDS011;6881;49.962;7.718;2023-05-13T07:42:53;3.53;;;3.10;;
3781;SDS011;6881;49.962;7.718;2023-05-13T07:45:18;3.20;;;2.90;;
3781;SDS011;6881;49.962;7.718;2023-05-13T07:47:44;5.43;;;3.17;;
3781;SDS011;6881;49.962;7.718;2023-05-13T07:50:09;4.70;;;3.17;;
3781;SDS011;6881;49.962;7.718;2023-05-13T07:52:35;4.40;;;4.00;;
3781;SDS011;6881;49.962;7.718;2023-05-13T07:55:00;4.33;;;3.50;;
3781;SDS011;6881;49.962;7.718;2023-05-13T07:57:26;4.30;;;3.90;;
3781;SDS011;6881;49.962;7.718;2023-05-13T07:59:51;2.90;;;2.70;;
3781;SDS011;6881;49.962;7.718;2023-05-13T08:02:18;3.57;;;3.27;;
3781;SDS011;6881;49.962;7.718;2023-05-13T08:04:43;3.60;;;3.30;;
3781;SDS011;6881;49.962;7.718;2023-05-13T08:07:09;3.40;;;3.10;;
3781;SDS011;6881;49.962;7.718;2023-05-13T08:09:35;3.90;;;3.60;;
3781;SDS011;6881;49.962;7.718;2023-05-13T08:12:00;4.00;;;3.20;;
3781;SDS011;6881;49.962;7.718;2023-05-13T08:14:25;3.40;;;3.10;;
3781;SDS011;6881;49.962;7.718;2023-05-13T08:16:51;5.40;;;3.30;;
3781;SDS011;6881;49.962;7.718;2023-05-13T08:19:16;3.27;;;2.80;;
3781;SDS011;6881;49.962;7.718;2023-05-13T08:21:42;3.90;;;3.00;;
3781;SDS011;6881;49.962;7.718;2023-05-13T08:24:07;3.00;;;2.80;;
3781;SDS011;6881;49.962;7.718;2023-05-13T08:26:32;3.20;;;2.90;;
3781;SDS011;6881;49.962;7.718;2023-05-13T08:28:58;5.73;;;3.67;;
3781;SDS011;6881;49.962;7.718;2023-05-13T08:31:24;4.97;;;4.47;;
3781;SDS011;6881;49.962;7.718;2023-05-13T08:33:50;4.07;;;3.33;;
3781;SDS011;6881;49.962;7.718;2023-05-13T08:36:17;3.77;;;3.40;;
3781;SDS011;6881;49.962;7.718;2023-05-13T08:38:42;3.60;;;3.30;;
3781;SDS011;6881;49.962;7.718;2023-05-13T08:41:11;3.60;;;3.30;;
3781;SDS011;6881;49.962;7.718;2023-05-13T08:43:37;5.63;;;3.30;;
3781;SDS011;6881;49.962;7.718;2023-05-13T08:46:03;4.60;;;3.30;;
3781;SDS011;6881;49.962;7.718;2023-05-13T08:48:30;3.10;;;2.90;;
3781;SDS011;6881;49.962;7.718;2023-05-13T08:50:56;3.07;;;2.77;;
3781;SDS011;6881;49.962;7.718;2023-05-13T08:53:22;3.47;;;3.17;;
3781;SDS011;6881;49.962;7.718;2023-05-13T08:55:49;3.50;;;3.30;;
3781;SDS011;6881;49.962;7.718;2023-05-13T08:58:15;3.80;;;3.50;;
3781;SDS011;6881;49.962;7.718;2023-05-13T09:00:41;4.87;;;4.10;;
3781;SDS011;6881;49.962;7.718;2023-05-13T09:03:06;3.90;;;3.37;;
3781;SDS011;6881;49.962;7.718;2023-05-13T09:05:32;3.60;;;3.30;;
3781;SDS011;6881;49.962;7.718;2023-05-13T09:07:58;3.70;;;3.27;;
3781;SDS011;6881;49.962;7.718;2023-05-13T09:10:24;3.47;;;3.17;;
3781;SDS011;6881;49.962;7.718;2023-05-13T09:12:50;4.80;;;3.90;;
3781;SDS011;6881;49.962;7.718;2023-05-13T09:15:23;4.10;;;3.67;;
3781;SDS011;6881;49.962;7.718;2023-05-13T09:17:50;3.40;;;3.20;;
3781;SDS011;6881;49.962;7.718;2023-05-13T09:20:17;3.33;;;3.03;;
3781;SDS011;6881;49.962;7.718;2023-05-13T09:22:48;3.77;;;3.43;;
3781;SDS011;6881;49.962;7.718;2023-05-13T09:25:21;4.57;;;4.10;;
3781;SDS011;6881;49.962;7.718;2023-05-13T09:27:53;5.17;;;4.13;;
3781;SDS011;6881;49.962;7.718;2023-05-13T09:30:22;3.70;;;3.40;;
3781;SDS011;6881;49.962;7.718;2023-05-13T09:35:30;3.60;;;3.30;;
3781;SDS011;6881;49.962;7.718;2023-05-13T09:37:56;4.67;;;4.10;;
3781;SDS011;6881;49.962;7.718;2023-05-13T09:40:21;3.83;;;3.40;;
3781;SDS011;6881;49.962;7.718;2023-05-13T09:42:47;4.60;;;3.80;;
3781;SDS011;6881;49.962;7.718;2023-05-13T09:45:13;4.17;;;3.73;;
3781;SDS011;6881;49.962;7.718;2023-05-13T09:47:39;4.53;;;4.13;;
3781;SDS011;6881;49.962;7.718;2023-05-13T09:50:05;3.70;;;3.40;;
3781;SDS011;6881;49.962;7.718;2023-05-13T09:52:32;4.00;;;3.70;;
3781;SDS011;6881;49.962;7.718;2023-05-13T09:54:59;4.17;;;3.77;;
3781;SDS011;6881;49.962;7.718;2023-05-13T09:57:28;4.93;;;4.30;;
3781;SDS011;6881;49.962;7.718;2023-05-13T10:00:00;3.77;;;3.47;;
3781;SDS011;6881;49.962;7.718;2023-05-13T10:02:26;3.90;;;3.60;;
3781;SDS011;6881;49.962;7.718;2023-05-13T10:04:53;4.10;;;3.80;;
3781;SDS011;6881;49.962;7.718;2023-05-13T10:07:20;4.07;;;3.77;;
3781;SDS011;6881;49.962;7.718;2023-05-13T10:09:48;4.70;;;4.07;;
3781;SDS011;6881;49.962;7.718;2023-05-13T10:12:22;4.83;;;4.37;;
3781;SDS011;6881;49.962;7.718;2023-05-13T10:14:49;4.57;;;4.20;;
3781;SDS011;6881;49.962;7.718;2023-05-13T10:17:17;4.03;;;3.73;;
3781;SDS011;6881;49.962;7.718;2023-05-13T10:19:44;4.20;;;3.80;;
3781;SDS011;6881;49.962;7.718;2023-05-13T10:22:09;4.17;;;3.87;;
3781;SDS011;6881;49.962;7.718;2023-05-13T10:24:35;4.97;;;3.83;;
3781;SDS011;6881;49.962;7.718;2023-05-13T10:27:01;4.23;;;3.40;;
3781;SDS011;6881;49.962;7.718;2023-05-13T10:29:27;5.57;;;3.90;;
3781;SDS011;6881;49.962;7.718;2023-05-13T10:31:53;4.27;;;3.87;;
3781;SDS011;6881;49.962;7.718;2023-05-13T10:34:19;4.17;;;3.63;;
3781;SDS011;6881;49.962;7.718;2023-05-13T10:37:02;4.00;;;3.70;;
3781;SDS011;6881;49.962;7.718;2023-05-13T10:45:10;3.53;;;3.13;;
3781;SDS011;6881;49.962;7.718;2023-05-13T10:47:35;3.97;;;3.67;;
3781;SDS011;6881;49.962;7.718;2023-05-13T10:52:47;4.40;;;4.00;;
3781;SDS011;6881;49.962;7.718;2023-05-13T10:55:16;4.00;;;3.70;;
3781;SDS011;6881;49.962;7.718;2023-05-13T10:58:02;4.13;;;3.80;;
3781;SDS011;6881;49.962;7.718;2023-05-13T11:00:38;4.20;;;3.80;;
3781;SDS011;6881;49.962;7.718;2023-05-13T11:05:44;4.30;;;4.00;;
3781;SDS011;6881;49.962;7.718;2023-05-13T11:08:38;3.90;;;3.60;;
3781;SDS011;6881;49.962;7.718;2023-05-13T11:14:05;5.43;;;4.20;;
3781;SDS011;6881;49.962;7.718;2023-05-13T11:19:25;4.20;;;3.90;;
3781;SDS011;6881;49.962;7.718;2023-05-13T11:21:51;4.23;;;3.90;;
3781;SDS011;6881;49.962;7.718;2023-05-13T11:24:19;4.37;;;4.07;;
3781;SDS011;6881;49.962;7.718;2023-05-13T11:29:34;4.60;;;4.07;;
3781;SDS011;6881;49.962;7.718;2023-05-13T11:32:00;5.00;;;4.60;;
3781;SDS011;6881;49.962;7.718;2023-05-13T11:34:30;5.00;;;4.50;;
3781;SDS011;6881;49.962;7.718;2023-05-13T11:39:26;5.30;;;4.80;;
3781;SDS011;6881;49.962;7.718;2023-05-13T11:41:52;4.50;;;4.10;;
3781;SDS011;6881;49.962;7.718;2023-05-13T11:44:20;4.70;;;4.20;;
3781;SDS011;6881;49.962;7.718;2023-05-13T11:52:16;4.17;;;3.87;;
3781;SDS011;6881;49.962;7.718;2023-05-13T11:54:52;6.37;;;4.47;;
3781;SDS011;6881;49.962;7.718;2023-05-13T11:57:22;6.70;;;4.63;;
3781;SDS011;6881;49.962;7.718;2023-05-13T11:59:55;4.83;;;4.43;;
3781;SDS011;6881;49.962;7.718;2023-05-13T12:02:27;8.33;;;4.40;;
3781;SDS011;6881;49.962;7.718;2023-05-13T12:04:54;3.57;;;3.27;;
3781;SDS011;6881;49.962;7.718;2023-05-13T12:07:20;3.77;;;3.47;;
3781;SDS011;6881;49.962;7.718;2023-05-13T12:09:46;4.20;;;3.80;;
3781;SDS011;6881;49.962;7.718;2023-05-13T12:12:12;3.63;;;3.13;;
3781;SDS011;6881;49.962;7.718;2023-05-13T12:14:38;2.90;;;2.60;;
3781;SDS011;6881;49.962;7.718;2023-05-13T12:17:03;3.20;;;2.90;;
3781;SDS011;6881;49.962;7.718;2023-05-13T12:19:29;2.67;;;2.30;;
3781;SDS011;6881;49.962;7.718;2023-05-13T12:21:54;4.17;;;3.80;;
3781;SDS011;6881;49.962;7.718;2023-05-13T12:24:20;4.30;;;3.80;;
3781;SDS011;6881;49.962;7.718;2023-05-13T12:26:46;3.50;;;3.20;;
3781;SDS011;6881;49.962;7.718;2023-05-13T12:29:11;5.30;;;3.93;;
3781;SDS011;6881;49.962;7.718;2023-05-13T12:31:37;4.90;;;4.27;;
3781;SDS011;6881;49.962;7.718;2023-05-13T12:34:02;3.53;;;3.23;;
3781;SDS011;6881;49.962;7.718;2023-05-13T12:36:29;4.90;;;4.50;;
3781;SDS011;6881;49.962;7.718;2023-05-13T12:39:01;4.60;;;4.23;;
3781;SDS011;6881;49.962;7.718;2023-05-13T12:41:28;3.80;;;3.50;;
3781;SDS011;6881;49.962;7.718;2023-05-13T12:43:58;4.17;;;3.87;;
3781;SDS011;6881;49.962;7.718;2023-05-13T12:46:24;4.50;;;3.80;;
3781;SDS011;6881;49.962;7.718;2023-05-13T12:48:58;4.03;;;3.73;;
3781;SDS011;6881;49.962;7.718;2023-05-13T12:51:24;4.07;;;3.77;;
3781;SDS011;6881;49.962;7.718;2023-05-13T12:53:50;3.60;;;3.30;;
3781;SDS011;6881;49.962;7.718;2023-05-13T12:56:18;4.20;;;3.80;;
3781;SDS011;6881;49.962;7.718;2023-05-13T12:58:45;5.13;;;4.63;;
3781;SDS011;6881;49.962;7.718;2023-05-13T13:01:10;4.43;;;3.90;;
3781;SDS011;6881;49.962;7.718;2023-05-13T13:03:36;5.87;;;4.70;;
3781;SDS011;6881;49.962;7.718;2023-05-13T13:06:01;6.17;;;5.67;;
3781;SDS011;6881;49.962;7.718;2023-05-13T13:08:26;5.37;;;4.53;;
3781;SDS011;6881;49.962;7.718;2023-05-13T13:10:52;5.77;;;3.63;;
3781;SDS011;6881;49.962;7.718;2023-05-13T13:13:18;5.70;;;5.20;;
3781;SDS011;6881;49.962;7.718;2023-05-13T13:15:43;5.60;;;4.47;;
3781;SDS011;6881;49.962;7.718;2023-05-13T13:18:08;5.27;;;4.77;;
3781;SDS011;6881;49.962;7.718;2023-05-13T13:20:34;5.60;;;5.10;;
3781;SDS011;6881;49.962;7.718;2023-05-13T13:22:59;6.00;;;4.47;;
3781;SDS011;6881;49.962;7.718;2023-05-13T13:25:26;5.40;;;4.90;;
3781;SDS011;6881;49.962;7.718;2023-05-13T13:27:52;5.67;;;5.17;;
3781;SDS011;6881;49.962;7.718;2023-05-13T13:30:18;4.80;;;4.40;;
3781;SDS011;6881;49.962;7.718;2023-05-13T13:32:43;5.63;;;5.13;;
3781;SDS011;6881;49.962;7.718;2023-05-13T13:35:08;5.87;;;5.37;;
3781;SDS011;6881;49.962;7.718;2023-05-13T13:37:34;5.00;;;4.60;;
3781;SDS011;6881;49.962;7.718;2023-05-13T13:39:59;5.07;;;4.73;;
3781;SDS011;6881;49.962;7.718;2023-05-13T13:42:25;4.90;;;4.27;;
3781;SDS011;6881;49.962;7.718;2023-05-13T13:44:50;5.37;;;4.97;;
3781;SDS011;6881;49.962;7.718;2023-05-13T13:47:15;4.63;;;4.23;;
3781;SDS011;6881;49.962;7.718;2023-05-13T13:49:41;4.83;;;4.43;;
3781;SDS011;6881;49.962;7.718;2023-05-13T13:52:06;11.10;;;4.60;;
3781;SDS011;6881;49.962;7.718;2023-05-13T13:54:32;3.87;;;3.57;;
3781;SDS011;6881;49.962;7.718;2023-05-13T13:56:57;4.53;;;4.20;;
3781;SDS011;6881;49.962;7.718;2023-05-13T13:59:23;4.70;;;4.30;;
3781;SDS011;6881;49.962;7.718;2023-05-13T14:01:48;4.60;;;4.27;;
3781;SDS011;6881;49.962;7.718;2023-05-13T14:04:14;4.77;;;4.23;;
3781;SDS011;6881;49.962;7.718;2023-05-13T14:06:41;4.07;;;3.73;;
3781;SDS011;6881;49.962;7.718;2023-05-13T14:09:06;7.23;;;3.80;;
3781;SDS011;6881;49.962;7.718;2023-05-13T14:11:32;4.20;;;3.90;;
3781;SDS011;6881;49.962;7.718;2023-05-13T14:13:57;8.73;;;5.00;;
3781;SDS011;6881;49.962;7.718;2023-05-13T14:16:23;3.93;;;3.60;;
3781;SDS011;6881;49.962;7.718;2023-05-13T14:18:48;4.00;;;3.70;;
3781;SDS011;6881;49.962;7.718;2023-05-13T14:21:13;4.70;;;4.30;;
3781;SDS011;6881;49.962;7.718;2023-05-13T14:23:39;5.67;;;4.40;;
3781;SDS011;6881;49.962;7.718;2023-05-13T14:26:06;5.73;;;4.30;;
3781;SDS011;6881;49.962;7.718;2023-05-13T14:28:33;4.57;;;4.17;;
3781;SDS011;6881;49.962;7.718;2023-05-13T14:30:58;4.60;;;4.17;;
3781;SDS011;6881;49.962;7.718;2023-05-13T14:33:24;4.70;;;4.30;;
3781;SDS011;6881;49.962;7.718;2023-05-13T14:35:49;4.90;;;4.50;;
3781;SDS011;6881;49.962;7.718;2023-05-13T14:38:15;4.33;;;4.03;;
3781;SDS011;6881;49.962;7.718;2023-05-13T14:40:40;4.77;;;4.37;;
3781;SDS011;6881;49.962;7.718;2023-05-13T14:43:06;6.10;;;3.73;;
3781;SDS011;6881;49.962;7.718;2023-05-13T14:45:31;6.37;;;3.90;;
3781;SDS011;6881;49.962;7.718;2023-05-13T14:47:56;3.93;;;3.30;;
3781;SDS011;6881;49.962;7.718;2023-05-13T14:50:22;3.53;;;3.23;;
3781;SDS011;6881;49.962;7.718;2023-05-13T14:52:47;3.60;;;3.27;;
3781;SDS011;6881;49.962;7.718;2023-05-13T14:55:13;3.40;;;2.93;;
3781;SDS011;6881;49.962;7.718;2023-05-13T14:57:38;3.83;;;3.47;;
3781;SDS011;6881;49.962;7.718;2023-05-13T15:00:04;3.30;;;3.10;;
3781;SDS011;6881;49.962;7.718;2023-05-13T15:02:29;3.40;;;3.10;;
3781;SDS011;6881;49.962;7.718;2023-05-13T15:04:55;3.63;;;3.30;;
3781;SDS011;6881;49.962;7.718;2023-05-13T15:07:20;3.30;;;2.90;;
3781;SDS011;6881;49.962;7.718;2023-05-13T15:09:46;2.87;;;2.67;;
3781;SDS011;6881;49.962;7.718;2023-05-13T15:12:11;3.10;;;2.80;;
3781;SDS011;6881;49.962;7.718;2023-05-13T15:14:36;3.40;;;2.67;;
3781;SDS011;6881;49.962;7.718;2023-05-13T15:17:01;3.60;;;3.10;;
3781;SDS011;6881;49.962;7.718;2023-05-13T15:19:27;3.00;;;2.70;;
3781;SDS011;6881;49.962;7.718;2023-05-13T15:21:52;3.20;;;2.90;;
3781;SDS011;6881;49.962;7.718;2023-05-13T15:24:18;3.63;;;3.33;;
3781;SDS011;6881;49.962;7.718;2023-05-13T15:26:43;2.90;;;2.70;;
3781;SDS011;6881;49.962;7.718;2023-05-13T15:29:09;3.40;;;3.10;;
3781;SDS011;6881;49.962;7.718;2023-05-13T15:31:34;3.53;;;3.33;;
3781;SDS011;6881;49.962;7.718;2023-05-13T15:33:59;2.93;;;2.73;;
3781;SDS011;6881;49.962;7.718;2023-05-13T15:36:26;4.00;;;3.60;;
3781;SDS011;6881;49.962;7.718;2023-05-13T15:38:51;3.43;;;3.13;;
3781;SDS011;6881;49.962;7.718;2023-05-13T15:41:17;3.80;;;3.50;;